Time;durP1;ratioP1;P1;durP2;ratioP2;P2;SDS_P1;SDS_P2;PMS_P1;PMS_P2;Temp;Humidity;BMP_temperature;BMP_pressure;BME280_temperature;BME280_humidity;BME280_pressure;Samples;Min_cycle;Max_cycle;Signal;HPM_P1;HPM_P2
2021/10/15 00:00:20;;;;;;;;;;;;;;;20.66;40.19;96109.19;1041379;28;812;-61
2021/10/15 00:00:51;;;;;;;;;;;;;;;20.66;40.08;96111.84;1041641;28;811;-60
2021/10/15 00:01:21;;;;;;;;;;;;;;;20.68;40.01;96109.72;1041507;28;867;-61
2021/10/15 00:01:51;;;;;;;;;;;;;;;20.68;40.11;96111.56;1045531;28;768;-62
2021/10/15 00:02:22;;;;;;;;;;;;;;;20.67;39.98;96108.13;1045232;28;1033;-61
2021/10/15 00:02:55;;;;;;;;;;;;;;;20.68;40.08;96108.94;1044448;28;808;-61
2021/10/15 00:03:25;;;;;;;;;;;;;;;20.68;39.81;96103.66;1045974;28;845;-61
2021/10/15 00:03:55;;;;;;;;;;;;;;;20.67;39.96;96102.84;1049858;28;1014;-60
2021/10/15 00:04:25;;;;;;;;;;;;;;;20.67;40.03;96102.09;1048284;28;1065;-60
2021/10/15 00:04:56;;;;;;;;;;;;;;;20.67;40.09;96107.38;1046063;28;1002;-61
2021/10/15 00:05:27;;;;;;;;;;;;;;;20.66;40.01;96103.94;1045904;28;944;-61
2021/10/15 00:05:58;;;;;;;;;;;;;;;20.65;40.26;96104.97;1046007;28;776;-60
2021/10/15 00:06:28;;;;;;;;;;;;;;;20.67;40.13;96102.09;1045662;28;824;-60
2021/10/15 00:06:58;;;;;;;;;;;;;;;20.66;40.08;96106.56;1045475;28;773;-61
2021/10/15 00:07:29;;;;;;;;;;;;;;;20.67;40.01;96100.22;1045256;28;998;-61
2021/10/15 00:07:59;;;;;;;;;;;;;;;20.66;40.22;96106.56;1045177;28;1010;-60
2021/10/15 00:08:29;;;;;;;;;;;;;;;20.66;39.88;96100.50;1045532;28;784;-60
2021/10/15 00:09:00;;;;;;;;;;;;;;;20.66;40.17;96103.94;1045981;28;1069;-60
2021/10/15 00:09:30;;;;;;;;;;;;;;;20.64;40.22;96106.03;1045487;28;1189;-60
2021/10/15 00:10:00;;;;;;;;;;;;;;;20.65;40.10;96096.31;1045715;28;898;-61
2021/10/15 00:10:31;;;;;;;;;;;;;;;20.65;39.98;96101.56;1044394;28;901;-61
2021/10/15 00:11:02;;;;;;;;;;;;;;;20.65;40.29;96099.69;1044889;28;1419;-60
2021/10/15 00:11:32;;;;;;;;;;;;;;;20.65;40.08;96107.59;1045148;28;815;-61
2021/10/15 00:12:03;;;;;;;;;;;;;;;20.65;40.01;96098.94;1045167;28;1029;-61
2021/10/15 00:12:33;;;;;;;;;;;;;;;20.64;39.98;96098.13;1045030;28;732;-61
2021/10/15 00:13:03;;;;;;;;;;;;;;;20.65;40.04;96104.97;1044877;28;882;-60
2021/10/15 00:13:34;;;;;;;;;;;;;;;20.65;39.98;96098.94;1045277;28;1909;-60
2021/10/15 00:14:04;;;;;;;;;;;;;;;20.65;40.20;96104.97;1044720;28;748;-59
2021/10/15 00:14:34;;;;;;;;;;;;;;;20.64;39.88;96107.88;1044270;28;1009;-60
2021/10/15 00:15:05;;;;;;;;;;;;;;;20.64;40.18;96102.59;1045165;28;1077;-60
2021/10/15 00:15:35;;;;;;;;;;;;;;;20.64;39.84;96097.34;1045022;28;805;-61
2021/10/15 00:16:06;;;;;;;;;;;;;;;20.64;40.12;96100.78;1040961;28;832;-59
2021/10/15 00:16:36;;;;;;;;;;;;;;;20.63;40.08;96101.81;1041039;28;717;-61
2021/10/15 00:17:06;;;;;;;;;;;;;;;20.63;39.93;96101.03;1040362;28;1070;-60
2021/10/15 00:17:37;;;;;;;;;;;;;;;20.61;40.05;96109.19;1043959;28;1022;-60
2021/10/15 00:18:07;;;;;;;;;;;;;;;20.62;40.06;96102.88;1044487;28;978;-60
2021/10/15 00:18:37;;;;;;;;;;;;;;;20.62;40.07;96102.88;1045082;28;839;-60
2021/10/15 00:19:08;;;;;;;;;;;;;;;20.62;40.13;96100.25;1044651;28;800;-60
2021/10/15 00:19:38;;;;;;;;;;;;;;;20.63;40.18;96101.03;1044216;28;1172;-61
2021/10/15 00:20:09;;;;;;;;;;;;;;;20.63;40.09;96107.06;1044948;28;1042;-61
2021/10/15 00:20:39;;;;;;;;;;;;;;;20.63;39.96;96106.31;1040548;28;1007;-61
2021/10/15 00:21:09;;;;;;;;;;;;;;;20.63;39.97;96106.31;1040596;28;788;-61
2021/10/15 00:21:40;;;;;;;;;;;;;;;20.63;40.14;96101.03;1036813;28;1058;-60
2021/10/15 00:22:11;;;;;;;;;;;;;;;20.63;40.08;96099.19;1036578;28;1361;-61
2021/10/15 00:22:41;;;;;;;;;;;;;;;20.63;40.06;96101.81;1040291;28;974;-61
2021/10/15 00:23:12;;;;;;;;;;;;;;;20.62;39.94;96100.25;1040476;28;824;-60
2021/10/15 00:23:42;;;;;;;;;;;;;;;20.61;40.33;96103.91;1040935;28;812;-61
2021/10/15 00:24:12;;;;;;;;;;;;;;;20.61;40.07;96097.88;1044921;28;756;-60
2021/10/15 00:24:42;;;;;;;;;;;;;;;20.61;39.97;96098.66;1043324;28;804;-59
2021/10/15 00:25:13;;;;;;;;;;;;;;;20.60;40.15;96105.00;1040065;28;804;-61
2021/10/15 00:25:43;;;;;;;;;;;;;;;20.59;40.35;96098.13;1036717;28;785;-60
2021/10/15 00:26:13;;;;;;;;;;;;;;;20.59;40.10;96099.97;1036766;28;801;-60
2021/10/15 00:26:44;;;;;;;;;;;;;;;20.59;39.95;96098.13;1040740;28;1357;-60
2021/10/15 00:27:14;;;;;;;;;;;;;;;20.59;40.03;96098.13;1040742;28;694;-61
2021/10/15 00:27:45;;;;;;;;;;;;;;;20.59;40.06;96095.50;1040454;28;823;-60
2021/10/15 00:28:15;;;;;;;;;;;;;;;20.59;40.20;96092.84;1036685;28;1057;-60
2021/10/15 00:28:45;;;;;;;;;;;;;;;20.58;40.21;96093.94;1040970;28;824;-60
2021/10/15 00:29:16;;;;;;;;;;;;;;;20.59;40.35;96097.34;1040729;28;769;-60
2021/10/15 00:29:46;;;;;;;;;;;;;;;20.59;40.13;96094.69;1039579;28;1221;-60
2021/10/15 00:30:16;;;;;;;;;;;;;;;20.58;40.21;96093.94;1044662;28;792;-60
2021/10/15 00:30:47;;;;;;;;;;;;;;;20.58;40.14;96095.75;1040716;28;1102;-60
2021/10/15 00:31:17;;;;;;;;;;;;;;;20.57;40.11;96094.97;1044792;28;1006;-59
2021/10/15 00:31:47;;;;;;;;;;;;;;;20.57;40.09;96092.34;1044543;28;1061;-59
2021/10/15 00:32:18;;;;;;;;;;;;;;;20.58;40.18;96091.28;1040653;28;947;-60
2021/10/15 00:32:48;;;;;;;;;;;;;;;20.59;40.12;96092.84;1043515;28;880;-60
2021/10/15 00:33:18;;;;;;;;;;;;;;;20.59;40.24;96090.22;1044975;28;1971;-61
2021/10/15 00:33:49;;;;;;;;;;;;;;;20.58;39.96;96093.94;1044647;28;744;-60
2021/10/15 00:34:19;;;;;;;;;;;;;;;20.58;40.13;96086.03;1044523;28;867;-60
2021/10/15 00:34:49;;;;;;;;;;;;;;;20.60;39.95;96088.38;1044283;28;1053;-59
2021/10/15 00:35:20;;;;;;;;;;;;;;;20.58;39.94;96088.66;1044853;28;844;-60
2021/10/15 00:35:51;;;;;;;;;;;;;;;20.58;40.19;96088.66;1044823;28;788;-59
2021/10/15 00:36:21;;;;;;;;;;;;;;;20.59;40.10;96089.44;1045350;28;840;-60
2021/10/15 00:36:51;;;;;;;;;;;;;;;20.57;40.09;96087.06;1045205;28;828;-60
2021/10/15 00:37:22;;;;;;;;;;;;;;;20.58;40.13;96079.97;1044975;28;789;-61
2021/10/15 00:37:52;;;;;;;;;;;;;;;20.59;39.96;96086.78;1044404;28;1070;-60
2021/10/15 00:38:22;;;;;;;;;;;;;;;20.59;39.91;96089.44;1044946;28;819;-60
2021/10/15 00:38:53;;;;;;;;;;;;;;;20.61;39.76;96087.34;1044219;28;800;-59
2021/10/15 00:39:23;;;;;;;;;;;;;;;20.61;40.10;96089.97;1044788;28;1332;-60
2021/10/15 00:39:53;;;;;;;;;;;;;;;20.60;40.11;96083.91;1044018;28;856;-60
2021/10/15 00:40:24;;;;;;;;;;;;;;;20.60;40.09;96083.13;1044737;28;804;-60
2021/10/15 00:40:54;;;;;;;;;;;;;;;20.58;39.93;96085.22;1044968;28;693;-59
2021/10/15 00:41:25;;;;;;;;;;;;;;;20.58;40.18;96083.41;1044749;28;947;-60
2021/10/15 00:41:55;;;;;;;;;;;;;;;20.56;40.00;96080.25;1040395;28;1054;-60
2021/10/15 00:42:25;;;;;;;;;;;;;;;20.56;40.17;96082.88;1040440;28;1042;-60
2021/10/15 00:42:56;;;;;;;;;;;;;;;20.56;40.13;96077.59;1040102;28;1030;-60
2021/10/15 00:43:26;;;;;;;;;;;;;;;20.57;40.19;96086.28;1044947;28;1018;-60
2021/10/15 00:44:00;;;;;;;;;;;;;;;20.55;40.18;96083.91;1044675;28;922;-60
2021/10/15 00:44:31;;;;;;;;;;;;;;;20.55;39.88;96078.66;1044037;28;797;-61
2021/10/15 00:45:01;;;;;;;;;;;;;;;20.56;40.06;96082.06;1044934;28;800;-59
2021/10/15 00:45:31;;;;;;;;;;;;;;;20.54;40.05;96082.34;1040604;28;816;-60
2021/10/15 00:46:02;;;;;;;;;;;;;;;20.54;40.23;96074.44;1040694;28;753;-59
2021/10/15 00:46:32;;;;;;;;;;;;;;;20.56;39.95;96074.97;1044828;28;871;-60
2021/10/15 00:47:03;;;;;;;;;;;;;;;20.55;40.15;96076.00;1044872;28;834;-60
2021/10/15 00:47:33;;;;;;;;;;;;;;;20.55;40.15;96073.38;1044577;28;834;-58
2021/10/15 00:48:04;;;;;;;;;;;;;;;20.55;40.03;96068.09;1043447;28;811;-60
2021/10/15 00:48:38;;;;;;;;;;;;;;;20.56;40.13;96064.44;1040740;28;860;-60
2021/10/15 00:49:15;;;;;;;;;;;;;;;20.56;40.14;96072.34;1041170;28;730;-59
2021/10/15 00:49:45;;;;;;;;;;;;;;;20.56;40.05;96069.69;1035427;28;1209;-60
2021/10/15 00:50:16;;;;;;;;;;;;;;;20.56;40.03;96063.63;1042166;28;975;-59
2021/10/15 00:50:46;;;;;;;;;;;;;;;20.55;40.14;96065.47;1036304;28;1320;-59
2021/10/15 00:51:16;;;;;;;;;;;;;;;20.56;40.11;96068.91;1036707;28;880;-59
2021/10/15 00:51:47;;;;;;;;;;;;;;;20.53;40.36;96067.59;1040525;28;819;-60
2021/10/15 00:52:17;;;;;;;;;;;;;;;20.54;40.05;96061.28;1036369;28;790;-60
2021/10/15 00:52:47;;;;;;;;;;;;;;;20.54;39.80;96069.19;1040514;28;808;-60
2021/10/15 00:53:18;;;;;;;;;;;;;;;20.55;40.21;96067.31;1040644;28;1476;-60
2021/10/15 00:53:48;;;;;;;;;;;;;;;20.54;40.07;96065.75;1040341;28;1910;-59
2021/10/15 00:54:19;;;;;;;;;;;;;;;20.54;40.05;96061.28;1040276;28;1010;-58
2021/10/15 00:54:49;;;;;;;;;;;;;;;20.53;39.93;96058.88;1036282;28;1297;-60
2021/10/15 00:55:19;;;;;;;;;;;;;;;20.53;40.09;96064.94;1036212;28;1003;-60
2021/10/15 00:55:50;;;;;;;;;;;;;;;20.53;40.08;96064.94;1040574;28;911;-60
2021/10/15 00:56:20;;;;;;;;;;;;;;;20.52;40.04;96060.75;1044965;28;883;-59
2021/10/15 00:56:50;;;;;;;;;;;;;;;20.53;40.28;96058.88;1045056;28;839;-60
2021/10/15 00:57:21;;;;;;;;;;;;;;;20.52;40.27;96058.13;1045134;28;823;-60
2021/10/15 00:57:51;;;;;;;;;;;;;;;20.52;40.24;96058.13;1044653;28;711;-58
2021/10/15 00:58:21;;;;;;;;;;;;;;;20.53;39.98;96053.63;1044869;28;812;-60
2021/10/15 00:58:52;;;;;;;;;;;;;;;20.52;40.05;96052.06;1044682;28;852;-60
2021/10/15 00:59:23;;;;;;;;;;;;;;;20.53;40.11;96058.88;1044656;28;1331;-59
2021/10/15 00:59:53;;;;;;;;;;;;;;;20.53;40.05;96058.88;1044588;28;1021;-59
2021/10/15 01:00:23;;;;;;;;;;;;;;;20.53;40.26;96059.69;1040190;28;1347;-60
2021/10/15 01:00:54;;;;;;;;;;;;;;;20.53;39.90;96057.06;1044773;28;848;-60
2021/10/15 01:01:24;;;;;;;;;;;;;;;20.53;40.11;96054.41;1044911;28;1096;-59
2021/10/15 01:01:54;;;;;;;;;;;;;;;20.54;40.08;96050.75;1044437;28;919;-59
2021/10/15 01:02:25;;;;;;;;;;;;;;;20.53;40.02;96054.41;1044567;28;1100;-59
2021/10/15 01:02:56;;;;;;;;;;;;;;;20.54;39.79;96055.22;1043608;28;816;-60
2021/10/15 01:03:26;;;;;;;;;;;;;;;20.55;39.93;96052.31;1044992;28;1018;-60
2021/10/15 01:03:59;;;;;;;;;;;;;;;20.56;39.91;96050.47;1045065;28;1157;-60
2021/10/15 01:04:30;;;;;;;;;;;;;;;20.54;39.89;96050.75;1044277;28;805;-59
2021/10/15 01:05:00;;;;;;;;;;;;;;;20.54;40.11;96049.94;1044653;28;797;-60
2021/10/15 01:05:31;;;;;;;;;;;;;;;20.53;40.07;96049.16;1040134;28;1360;-60
2021/10/15 01:06:01;;;;;;;;;;;;;;;20.52;40.16;96055.50;1040328;28;730;-60
2021/10/15 01:06:32;;;;;;;;;;;;;;;20.53;40.13;96043.09;1044714;28;830;-59
2021/10/15 01:07:06;;;;;;;;;;;;;;;20.52;40.00;96044.16;1036510;28;1184;-60
2021/10/15 01:07:37;;;;;;;;;;;;;;;20.51;40.14;96047.84;1036025;28;1483;-59
2021/10/15 01:08:07;;;;;;;;;;;;;;;20.50;40.11;96047.06;1036444;28;781;-59
2021/10/15 01:08:41;;;;;;;;;;;;;;;20.50;39.99;96047.06;1033608;28;1122;-60
2021/10/15 01:09:31;;;;;;;;;;;;;;;20.51;39.99;96045.19;1037323;28;1280;-60
2021/10/15 01:10:06;;;;;;;;;;;;;;;20.51;40.22;96040.72;1040527;28;742;-60
2021/10/15 01:10:36;;;;;;;;;;;;;;;20.51;39.86;96042.56;1040075;28;844;-60
2021/10/15 01:11:17;;;;;;;;;;;;;;;20.51;40.14;96045.19;1040652;28;1423;-58
2021/10/15 01:11:53;;;;;;;;;;;;;;;20.51;40.01;96046.00;1036224;28;1311;-59
2021/10/15 01:12:24;;;;;;;;;;;;;;;20.51;39.94;96045.19;1036199;28;859;-60
2021/10/15 01:13:05;;;;;;;;;;;;;;;20.51;40.14;96042.56;1035518;28;1265;-60
2021/10/15 01:13:56;;;;;;;;;;;;;;;20.49;40.24;96040.22;1040540;28;1215;-58
2021/10/15 01:14:41;;;;;;;;;;;;;;;20.49;40.01;96040.22;1036495;28;1317;-60
2021/10/15 01:15:12;;;;;;;;;;;;;;;20.50;40.18;96041.81;1036367;28;805;-60
2021/10/15 01:15:42;;;;;;;;;;;;;;;20.51;40.17;96045.19;1036092;28;860;-60
2021/10/15 01:16:13;;;;;;;;;;;;;;;20.51;40.20;96040.72;1038658;28;770;-58
2021/10/15 01:16:46;;;;;;;;;;;;;;;20.50;40.15;96041.00;1040496;28;692;-59
2021/10/15 01:17:36;;;;;;;;;;;;;;;20.48;40.29;96041.28;1042823;28;1084;-59
2021/10/15 01:18:21;;;;;;;;;;;;;;;20.48;40.13;96032.56;1044703;28;872;-58
2021/10/15 01:18:55;;;;;;;;;;;;;;;20.50;39.89;96039.16;1043242;28;1444;-59
2021/10/15 01:19:50;;;;;;;;;;;;;;;20.50;40.07;96038.38;1044312;28;1297;-59
2021/10/15 01:20:41;;;;;;;;;;;;;;;20.52;40.09;96036.25;1044182;28;1039;-60
2021/10/15 01:21:31;;;;;;;;;;;;;;;20.50;40.13;96028.63;1044972;28;1027;-59
2021/10/15 01:22:02;;;;;;;;;;;;;;;20.49;40.02;96028.88;1044130;28;808;-60
2021/10/15 01:22:33;;;;;;;;;;;;;;;20.49;39.99;96031.50;1040277;28;1476;-60
2021/10/15 01:23:03;;;;;;;;;;;;;;;20.48;40.19;96033.38;1040220;28;757;-59
2021/10/15 01:23:34;;;;;;;;;;;;;;;20.48;40.21;96033.38;1040701;28;773;-57
2021/10/15 01:24:24;;;;;;;;;;;;;;;20.47;40.02;96030.97;1044031;28;1083;-60
2021/10/15 01:25:14;;;;;;;;;;;;;;;20.47;40.05;96029.16;1044817;28;1090;-59
2021/10/15 01:25:45;;;;;;;;;;;;;;;20.46;40.33;96022.31;1040530;28;887;-58
2021/10/15 01:26:21;;;;;;;;;;;;;;;20.45;40.06;96020.72;1040538;28;1399;-59
2021/10/15 01:27:11;;;;;;;;;;;;;;;20.46;40.05;96022.31;1040182;28;1360;-60
2021/10/15 01:28:02;;;;;;;;;;;;;;;20.45;39.91;96025.19;1044132;28;1059;-60
2021/10/15 01:28:35;;;;;;;;;;;;;;;20.45;40.21;96020.72;1040452;28;871;-60
2021/10/15 01:29:05;;;;;;;;;;;;;;;20.45;40.19;96020.72;1038858;28;1246;-60
2021/10/15 01:29:39;;;;;;;;;;;;;;;20.46;40.04;96017.06;1032252;28;1491;-58
2021/10/15 01:30:10;;;;;;;;;;;;;;;20.45;40.00;96018.09;1033364;28;809;-59
2021/10/15 01:31:00;;;;;;;;;;;;;;;20.45;40.07;96010.19;1038101;28;1072;-59
2021/10/15 01:31:51;;;;;;;;;;;;;;;20.46;39.97;96006.53;1044576;28;1255;-60
2021/10/15 01:32:37;;;;;;;;;;;;;;;20.47;40.34;96009.91;1043845;28;863;-60
2021/10/15 01:33:07;;;;;;;;;;;;;;;20.46;40.05;96011.78;1043919;28;1332;-59
2021/10/15 01:33:38;;;;;;;;;;;;;;;20.47;40.01;96007.28;1044462;28;1973;-60
2021/10/15 01:34:09;;;;;;;;;;;;;;;20.46;39.98;96013.63;1044108;28;733;-59
2021/10/15 01:34:39;;;;;;;;;;;;;;;20.44;39.95;96010.47;1039803;28;796;-60
2021/10/15 01:35:09;;;;;;;;;;;;;;;20.44;40.10;96008.63;1039932;28;998;-59
2021/10/15 01:35:40;;;;;;;;;;;;;;;20.44;39.94;96008.63;1044553;28;1022;-59
2021/10/15 01:36:10;;;;;;;;;;;;;;;20.45;39.98;96012.03;1044664;28;829;-59
2021/10/15 01:36:41;;;;;;;;;;;;;;;20.42;40.05;96008.09;1044569;28;831;-60
2021/10/15 01:37:14;;;;;;;;;;;;;;;20.43;40.01;96007.03;1044561;28;999;-58
2021/10/15 01:37:44;;;;;;;;;;;;;;;20.42;40.00;96004.69;1044660;28;788;-60
2021/10/15 01:38:15;;;;;;;;;;;;;;;20.41;40.15;96005.72;1045018;28;860;-60
2021/10/15 01:38:45;;;;;;;;;;;;;;;20.41;40.00;96001.25;1044589;28;982;-60
2021/10/15 01:39:16;;;;;;;;;;;;;;;20.41;40.05;96003.88;1044119;28;804;-58
2021/10/15 01:39:46;;;;;;;;;;;;;;;20.41;40.19;95997.81;1040228;28;1310;-60
2021/10/15 01:40:16;;;;;;;;;;;;;;;20.42;39.99;96002.84;1040471;28;844;-59
2021/10/15 01:40:47;;;;;;;;;;;;;;;20.43;39.99;96006.25;1044467;28;1022;-60
2021/10/15 01:41:17;;;;;;;;;;;;;;;20.43;40.08;96001.78;1036425;28;872;-60
2021/10/15 01:41:47;;;;;;;;;;;;;;;20.41;40.03;95998.63;1032020;28;1188;-60
2021/10/15 01:43:21;;;;;;;;;;;;;;;20.41;40.14;96001.25;1032447;28;1092;-60
2021/10/15 01:43:51;;;;;;;;;;;;;;;20.41;40.04;96003.88;1039388;28;1335;-60
2021/10/15 01:44:22;;;;;;;;;;;;;;;20.40;40.01;95994.41;1041446;28;931;-59
2021/10/15 01:44:52;;;;;;;;;;;;;;;20.40;39.99;95996.25;1044967;28;761;-60
2021/10/15 01:45:32;;;;;;;;;;;;;;;20.41;39.90;96001.25;1044564;28;1315;-60
2021/10/15 01:46:02;;;;;;;;;;;;;;;20.41;40.01;95997.81;1040304;28;867;-60
2021/10/15 01:46:32;;;;;;;;;;;;;;;20.42;40.01;96002.03;1036437;28;1484;-60
2021/10/15 01:47:03;;;;;;;;;;;;;;;20.41;39.94;96003.09;1033202;28;1217;-59
2021/10/15 01:47:33;;;;;;;;;;;;;;;20.40;40.07;95996.25;1036035;28;952;-60
2021/10/15 01:48:04;;;;;;;;;;;;;;;20.41;39.95;96000.44;1035400;28;776;-60
2021/10/15 01:48:34;;;;;;;;;;;;;;;20.40;40.04;95998.88;1040708;28;891;-60
2021/10/15 01:49:04;;;;;;;;;;;;;;;20.40;40.16;96001.53;1044494;28;820;-59
2021/10/15 01:49:35;;;;;;;;;;;;;;;20.39;40.02;95997.28;1044225;28;1185;-60
2021/10/15 01:50:05;;;;;;;;;;;;;;;20.40;39.81;95998.88;1044685;28;797;-60
2021/10/15 01:50:36;;;;;;;;;;;;;;;20.40;39.94;95999.69;1044597;28;982;-60
2021/10/15 01:51:06;;;;;;;;;;;;;;;20.40;39.95;96004.16;1044621;28;943;-59
2021/10/15 01:51:36;;;;;;;;;;;;;;;20.40;40.06;95996.25;1040577;28;833;-60
2021/10/15 01:52:07;;;;;;;;;;;;;;;20.40;39.97;95997.06;1040037;28;784;-60
2021/10/15 01:52:37;;;;;;;;;;;;;;;20.40;39.77;95997.06;1044232;28;835;-58
2021/10/15 01:53:08;;;;;;;;;;;;;;;20.40;40.15;95997.06;1044542;28;1354;-60
2021/10/15 01:53:40;;;;;;;;;;;;;;;20.41;39.90;95987.28;1044625;28;1910;-60
2021/10/15 01:54:11;;;;;;;;;;;;;;;20.40;39.88;95991.00;1044379;28;734;-59
2021/10/15 01:54:41;;;;;;;;;;;;;;;20.41;39.86;95989.91;1039917;28;895;-60
2021/10/15 01:55:12;;;;;;;;;;;;;;;20.39;40.05;95990.19;1044557;28;741;-62
2021/10/15 01:55:42;;;;;;;;;;;;;;;20.39;40.05;95992.81;1044251;28;863;-60
2021/10/15 01:56:12;;;;;;;;;;;;;;;20.39;39.92;95978.88;1044449;28;789;-60
2021/10/15 01:56:43;;;;;;;;;;;;;;;20.38;40.13;95985.97;1044490;28;1363;-61
2021/10/15 01:57:13;;;;;;;;;;;;;;;20.38;40.18;95987.84;1044529;28;784;-59
2021/10/15 01:57:44;;;;;;;;;;;;;;;20.38;40.18;95987.84;1044307;28;757;-60
2021/10/15 01:58:17;;;;;;;;;;;;;;;20.38;39.88;95988.59;1039859;28;1126;-60
2021/10/15 01:58:47;;;;;;;;;;;;;;;20.38;40.05;95983.34;1044538;28;1002;-59
2021/10/15 01:59:17;;;;;;;;;;;;;;;20.38;40.02;95987.84;1044549;28;1240;-59
2021/10/15 01:59:48;;;;;;;;;;;;;;;20.40;39.99;95985.72;1044145;28;887;-58
2021/10/15 02:00:18;;;;;;;;;;;;;;;20.40;39.88;95980.47;1044660;28;836;-60
2021/10/15 02:00:48;;;;;;;;;;;;;;;20.39;39.96;95978.88;1044754;28;867;-60
2021/10/15 02:01:19;;;;;;;;;;;;;;;20.39;40.10;95984.94;1040322;28;928;-60
2021/10/15 02:01:49;;;;;;;;;;;;;;;20.39;39.84;95979.66;1040309;28;863;-60
2021/10/15 02:02:19;;;;;;;;;;;;;;;20.39;40.00;95984.13;1039794;28;1081;-59
2021/10/15 02:02:50;;;;;;;;;;;;;;;20.39;39.86;95978.88;1039188;28;1472;-60
2021/10/15 02:03:20;;;;;;;;;;;;;;;20.39;40.14;95982.28;1036245;28;1244;-59
2021/10/15 02:03:51;;;;;;;;;;;;;;;20.39;39.99;95978.88;1036312;28;1085;-60
2021/10/15 02:04:21;;;;;;;;;;;;;;;20.39;40.16;95984.13;1035788;28;1026;-61
2021/10/15 02:04:52;;;;;;;;;;;;;;;20.39;40.09;95981.50;1040064;28;1038;-59
2021/10/15 02:05:22;;;;;;;;;;;;;;;20.38;40.17;95980.69;1044743;28;796;-59
2021/10/15 02:05:53;;;;;;;;;;;;;;;20.37;40.24;95978.34;1044861;28;796;-60
2021/10/15 02:06:23;;;;;;;;;;;;;;;20.35;40.22;95975.97;1044547;28;1141;-60
2021/10/15 02:06:53;;;;;;;;;;;;;;;20.35;40.13;95978.63;1044342;28;764;-60
2021/10/15 02:07:24;;;;;;;;;;;;;;;20.35;39.98;95978.63;1044556;28;1481;-59
2021/10/15 02:07:54;;;;;;;;;;;;;;;20.36;40.14;95985.44;1044235;28;958;-60
2021/10/15 02:08:24;;;;;;;;;;;;;;;20.36;40.03;95980.19;1048213;28;697;-60
2021/10/15 02:08:55;;;;;;;;;;;;;;;20.37;39.88;95976.50;1044415;28;997;-60
2021/10/15 02:09:25;;;;;;;;;;;;;;;20.36;39.78;95974.91;1040222;28;1304;-60
2021/10/15 02:09:55;;;;;;;;;;;;;;;20.36;39.87;95974.91;1040035;28;764;-60
2021/10/15 02:10:26;;;;;;;;;;;;;;;20.36;39.91;95972.28;1040341;28;790;-58
2021/10/15 02:10:56;;;;;;;;;;;;;;;20.36;40.01;95974.91;1043759;28;899;-60
2021/10/15 02:11:27;;;;;;;;;;;;;;;20.36;40.23;95976.78;1044416;28;849;-60
2021/10/15 02:11:59;;;;;;;;;;;;;;;20.36;39.90;95974.16;1044431;28;860;-59
2021/10/15 02:12:29;;;;;;;;;;;;;;;20.35;39.91;95975.19;1044565;28;990;-60
2021/10/15 02:13:00;;;;;;;;;;;;;;;20.35;40.08;95977.81;1044393;28;1057;-60
2021/10/15 02:13:30;;;;;;;;;;;;;;;20.34;40.39;95971.75;1044404;28;1910;-60
2021/10/15 02:14:01;;;;;;;;;;;;;;;20.34;40.03;95963.09;1044109;28;866;-59
2021/10/15 02:14:31;;;;;;;;;;;;;;;20.34;39.93;95968.38;1043756;28;807;-60
2021/10/15 02:15:02;;;;;;;;;;;;;;;20.33;40.17;95964.13;1044161;28;871;-60
2021/10/15 02:15:32;;;;;;;;;;;;;;;20.34;40.05;95966.50;1044807;28;787;-60
2021/10/15 02:16:03;;;;;;;;;;;;;;;20.35;39.89;95962.81;1044833;28;982;-59
2021/10/15 02:16:33;;;;;;;;;;;;;;;20.34;39.80;95963.88;1043656;28;958;-60
2021/10/15 02:17:04;;;;;;;;;;;;;;;20.34;40.24;95957.84;1044342;28;804;-59
2021/10/15 02:17:34;;;;;;;;;;;;;;;20.33;39.81;95954.41;1044134;28;769;-59
2021/10/15 02:18:04;;;;;;;;;;;;;;;20.34;40.08;95960.47;1039830;28;959;-60
2021/10/15 02:18:35;;;;;;;;;;;;;;;20.34;40.00;95960.47;1044531;28;788;-59
2021/10/15 02:19:05;;;;;;;;;;;;;;;20.33;39.94;95958.88;1044377;28;774;-60
2021/10/15 02:19:35;;;;;;;;;;;;;;;20.34;39.94;95963.09;1039979;28;1316;-59
2021/10/15 02:20:06;;;;;;;;;;;;;;;20.34;39.82;95958.59;1040410;28;1064;-58
2021/10/15 02:20:37;;;;;;;;;;;;;;;20.34;40.18;95961.22;1039815;28;1011;-61
2021/10/15 02:21:07;;;;;;;;;;;;;;;20.34;39.84;95955.97;1036180;28;1310;-60
2021/10/15 02:21:37;;;;;;;;;;;;;;;20.34;39.80;95955.97;1040007;28;1044;-60
2021/10/15 02:22:08;;;;;;;;;;;;;;;20.33;39.74;95951.78;1044331;28;760;-58
2021/10/15 02:22:39;;;;;;;;;;;;;;;20.34;39.94;95958.59;1044347;28;757;-60
2021/10/15 02:23:09;;;;;;;;;;;;;;;20.34;39.86;95961.22;1044642;28;1038;-60
2021/10/15 02:23:39;;;;;;;;;;;;;;;20.32;40.00;95955.44;1044682;28;938;-58
2021/10/15 02:24:09;;;;;;;;;;;;;;;20.33;39.79;95958.88;1044896;28;1010;-60
2021/10/15 02:24:40;;;;;;;;;;;;;;;20.33;40.04;95964.13;1044196;28;800;-60
2021/10/15 02:25:11;;;;;;;;;;;;;;;20.33;40.24;95964.13;1044869;28;710;-60
2021/10/15 02:25:41;;;;;;;;;;;;;;;20.34;39.88;95963.09;1044330;28;803;-59
2021/10/15 02:26:15;;;;;;;;;;;;;;;20.34;39.87;95965.72;1044406;28;770;-60
2021/10/15 02:26:45;;;;;;;;;;;;;;;20.33;39.91;95964.94;1044109;28;1211;-58
2021/10/15 02:27:15;;;;;;;;;;;;;;;20.34;39.95;95963.88;1043500;28;730;-61
2021/10/15 02:27:46;;;;;;;;;;;;;;;20.34;39.96;95957.84;1044475;28;1047;-60
2021/10/15 02:28:16;;;;;;;;;;;;;;;20.32;40.03;95957.31;1044932;28;836;-60
2021/10/15 02:28:47;;;;;;;;;;;;;;;20.33;39.83;95964.94;1044092;28;1073;-60
2021/10/15 02:29:17;;;;;;;;;;;;;;;20.33;39.86;95967.56;1044327;28;1292;-59
2021/10/15 02:29:47;;;;;;;;;;;;;;;20.33;40.00;95964.13;1044318;28;994;-58
2021/10/15 02:30:18;;;;;;;;;;;;;;;20.32;39.84;95968.59;1044625;28;839;-60
2021/10/15 02:30:48;;;;;;;;;;;;;;;20.30;39.91;95962.81;1044438;28;844;-61
2021/10/15 02:31:19;;;;;;;;;;;;;;;20.31;39.97;95960.97;1036232;28;1137;-61
2021/10/15 02:31:49;;;;;;;;;;;;;;;20.30;40.11;95957.56;1035597;28;788;-60
2021/10/15 02:32:19;;;;;;;;;;;;;;;20.31;39.98;95959.16;1036019;28;833;-59
2021/10/15 02:32:50;;;;;;;;;;;;;;;20.31;40.09;95961.78;1039012;28;852;-60
2021/10/15 02:33:20;;;;;;;;;;;;;;;20.30;40.06;95954.91;1044214;28;800;-60
2021/10/15 02:33:51;;;;;;;;;;;;;;;20.30;39.89;95957.56;1043502;28;1961;-60
2021/10/15 02:34:21;;;;;;;;;;;;;;;20.30;40.03;95954.91;1043944;28;982;-61
2021/10/15 02:34:51;;;;;;;;;;;;;;;20.29;39.97;95958.63;1044452;28;859;-59
2021/10/15 02:35:22;;;;;;;;;;;;;;;20.30;40.13;95960.19;1040158;28;936;-60
2021/10/15 02:35:52;;;;;;;;;;;;;;;20.31;40.06;95955.72;1040176;28;782;-59
2021/10/15 02:36:23;;;;;;;;;;;;;;;20.29;40.10;95950.72;1040171;28;792;-60
2021/10/15 02:36:53;;;;;;;;;;;;;;;20.29;39.93;95958.63;1040102;28;1011;-60
2021/10/15 02:37:24;;;;;;;;;;;;;;;20.30;40.00;95954.16;1044480;28;899;-60
2021/10/15 02:37:57;;;;;;;;;;;;;;;20.31;39.85;95955.72;1044074;28;978;-60
2021/10/15 02:38:27;;;;;;;;;;;;;;;20.30;40.02;95947.03;1044394;28;983;-59
2021/10/15 02:38:57;;;;;;;;;;;;;;;20.30;40.04;95949.66;1044761;28;909;-58
2021/10/15 02:39:28;;;;;;;;;;;;;;;20.30;39.97;95949.66;1044813;28;1240;-60
2021/10/15 02:39:58;;;;;;;;;;;;;;;20.31;39.88;95945.97;1044623;28;1072;-60
2021/10/15 02:40:29;;;;;;;;;;;;;;;20.31;39.87;95953.88;1040251;28;814;-60
2021/10/15 02:40:59;;;;;;;;;;;;;;;20.30;39.85;95944.41;1040375;28;876;-60
2021/10/15 02:41:29;;;;;;;;;;;;;;;20.30;40.01;95951.53;1040161;28;773;-60
2021/10/15 02:41:59;;;;;;;;;;;;;;;20.30;39.86;95947.03;1035518;28;792;-60
2021/10/15 02:42:30;;;;;;;;;;;;;;;20.30;40.03;95949.66;1035931;28;840;-59
2021/10/15 02:43:00;;;;;;;;;;;;;;;20.29;39.97;95950.72;1040204;28;843;-60
2021/10/15 02:43:31;;;;;;;;;;;;;;;20.31;40.10;95955.72;1036342;28;651;-60
2021/10/15 02:44:01;;;;;;;;;;;;;;;20.31;40.05;95951.25;1040017;28;781;-60
2021/10/15 02:44:34;;;;;;;;;;;;;;;20.29;40.04;95956.00;1039604;28;800;-60
2021/10/15 02:45:04;;;;;;;;;;;;;;;20.29;39.90;95956.00;1040620;28;902;-60
2021/10/15 02:45:37;;;;;;;;;;;;;;;20.28;39.92;95946.50;1044468;28;807;-60
2021/10/15 02:46:07;;;;;;;;;;;;;;;20.28;39.96;95951.75;1044329;28;1014;-59
2021/10/15 02:46:38;;;;;;;;;;;;;;;20.26;40.16;95954.69;1044312;28;1018;-60
2021/10/15 02:47:09;;;;;;;;;;;;;;;20.25;39.96;95947.84;1040285;28;859;-59
2021/10/15 02:47:39;;;;;;;;;;;;;;;20.26;39.95;95951.25;1038824;28;1022;-59
2021/10/15 02:48:09;;;;;;;;;;;;;;;20.27;39.99;95950.22;1040013;28;1002;-60
2021/10/15 02:48:40;;;;;;;;;;;;;;;20.28;39.90;95946.50;1039951;28;1002;-59
2021/10/15 02:49:10;;;;;;;;;;;;;;;20.28;39.79;95957.81;1040241;28;1373;-60